sensor_id;sensor_type;location;lat;lon;timestamp;P1;durP1;ratioP1;P2;durP2;ratioP2
72728;SDS011;60843;52.062;4.508;2024-01-16T00:01:07;1.95;;;0.20;;
72728;SDS011;60843;52.062;4.508;2024-01-16T00:03:33;2.65;;;0.50;;
72728;SDS011;60843;52.062;4.508;2024-01-16T00:06:00;0.00;;;0.00;;
72728;SDS011;60843;52.062;4.508;2024-01-16T00:08:26;1.45;;;0.43;;
72728;SDS011;60843;52.062;4.508;2024-01-16T00:10:52;2.78;;;0.50;;
72728;SDS011;60843;52.062;4.508;2024-01-16T00:13:18;0.10;;;0.10;;
72728;SDS011;60843;52.062;4.508;2024-01-16T00:15:44;0.00;;;0.00;;
72728;SDS011;60843;52.062;4.508;2024-01-16T00:18:11;0.10;;;0.10;;
72728;SDS011;60843;52.062;4.508;2024-01-16T00:20:36;1.83;;;0.40;;
72728;SDS011;60843;52.062;4.508;2024-01-16T00:23:03;7.72;;;0.60;;
72728;SDS011;60843;52.062;4.508;2024-01-16T00:25:30;5.78;;;0.30;;
72728;SDS011;60843;52.062;4.508;2024-01-16T00:27:56;4.38;;;0.20;;
72728;SDS011;60843;52.062;4.508;2024-01-16T00:30:22;0.60;;;0.20;;
72728;SDS011;60843;52.062;4.508;2024-01-16T00:32:50;0.80;;;0.10;;
72728;SDS011;60843;52.062;4.508;2024-01-16T00:35:17;0.47;;;0.20;;
72728;SDS011;60843;52.062;4.508;2024-01-16T00:37:43;0.03;;;0.03;;
72728;SDS011;60843;52.062;4.508;2024-01-16T00:40:08;1.15;;;0.30;;
72728;SDS011;60843;52.062;4.508;2024-01-16T00:42:37;1.60;;;0.38;;
72728;SDS011;60843;52.062;4.508;2024-01-16T00:45:03;0.15;;;0.03;;
72728;SDS011;60843;52.062;4.508;2024-01-16T00:47:29;0.68;;;0.32;;
72728;SDS011;60843;52.062;4.508;2024-01-16T00:49:55;0.20;;;0.15;;
72728;SDS011;60843;52.062;4.508;2024-01-16T00:52:22;0.50;;;0.17;;
72728;SDS011;60843;52.062;4.508;2024-01-16T00:54:47;0.85;;;0.40;;
72728;SDS011;60843;52.062;4.508;2024-01-16T00:57:13;1.27;;;0.25;;
72728;SDS011;60843;52.062;4.508;2024-01-16T00:59:41;0.40;;;0.13;;
72728;SDS011;60843;52.062;4.508;2024-01-16T01:02:07;12.10;;;2.28;;
72728;SDS011;60843;52.062;4.508;2024-01-16T01:04:36;2.80;;;0.10;;
72728;SDS011;60843;52.062;4.508;2024-01-16T01:07:03;1.15;;;0.43;;
72728;SDS011;60843;52.062;4.508;2024-01-16T01:09:29;0.60;;;0.22;;
72728;SDS011;60843;52.062;4.508;2024-01-16T01:11:57;3.95;;;0.65;;
72728;SDS011;60843;52.062;4.508;2024-01-16T01:14:22;1.45;;;0.43;;
72728;SDS011;60843;52.062;4.508;2024-01-16T01:16:48;1.92;;;0.30;;
72728;SDS011;60843;52.062;4.508;2024-01-16T01:19:14;0.60;;;0.20;;
72728;SDS011;60843;52.062;4.508;2024-01-16T01:21:40;0.70;;;0.40;;
72728;SDS011;60843;52.062;4.508;2024-01-16T01:24:06;1.98;;;0.82;;
72728;SDS011;60843;52.062;4.508;2024-01-16T01:26:32;1.20;;;0.50;;
72728;SDS011;60843;52.062;4.508;2024-01-16T01:29:00;2.53;;;0.28;;
72728;SDS011;60843;52.062;4.508;2024-01-16T01:31:27;1.08;;;0.10;;
72728;SDS011;60843;52.062;4.508;2024-01-16T01:33:52;3.35;;;0.20;;
72728;SDS011;60843;52.062;4.508;2024-01-16T01:36:18;0.35;;;0.10;;
72728;SDS011;60843;52.062;4.508;2024-01-16T01:38:44;2.25;;;0.22;;
72728;SDS011;60843;52.062;4.508;2024-01-16T01:41:10;1.67;;;0.35;;
72728;SDS011;60843;52.062;4.508;2024-01-16T01:43:39;2.90;;;0.68;;
72728;SDS011;60843;52.062;4.508;2024-01-16T01:46:13;0.65;;;0.52;;
72728;SDS011;60843;52.062;4.508;2024-01-16T01:48:41;0.08;;;0.03;;
72728;SDS011;60843;52.062;4.508;2024-01-16T01:51:12;2.13;;;0.10;;
72728;SDS011;60843;52.062;4.508;2024-01-16T01:53:39;1.40;;;0.30;;
72728;SDS011;60843;52.062;4.508;2024-01-16T01:56:11;1.48;;;0.32;;
72728;SDS011;60843;52.062;4.508;2024-01-16T01:58:43;3.67;;;0.28;;
72728;SDS011;60843;52.062;4.508;2024-01-16T02:01:09;2.08;;;0.40;;
72728;SDS011;60843;52.062;4.508;2024-01-16T02:03:39;1.73;;;0.28;;
72728;SDS011;60843;52.062;4.508;2024-01-16T02:06:06;7.10;;;0.57;;
72728;SDS011;60843;52.062;4.508;2024-01-16T02:08:32;0.88;;;0.45;;
72728;SDS011;60843;52.062;4.508;2024-01-16T02:10:58;9.93;;;1.27;;
72728;SDS011;60843;52.062;4.508;2024-01-16T02:13:24;1.13;;;0.50;;
72728;SDS011;60843;52.062;4.508;2024-01-16T02:15:50;0.82;;;0.28;;
72728;SDS011;60843;52.062;4.508;2024-01-16T02:18:16;0.85;;;0.13;;
72728;SDS011;60843;52.062;4.508;2024-01-16T02:20:42;4.95;;;0.50;;
72728;SDS011;60843;52.062;4.508;2024-01-16T02:23:08;1.85;;;0.55;;
72728;SDS011;60843;52.062;4.508;2024-01-16T02:25:35;6.43;;;0.45;;
72728;SDS011;60843;52.062;4.508;2024-01-16T02:28:01;9.10;;;0.30;;
72728;SDS011;60843;52.062;4.508;2024-01-16T02:30:28;4.30;;;0.70;;
72728;SDS011;60843;52.062;4.508;2024-01-16T02:32:55;1.95;;;0.30;;
72728;SDS011;60843;52.062;4.508;2024-01-16T02:35:20;7.75;;;0.68;;
72728;SDS011;60843;52.062;4.508;2024-01-16T02:37:46;1.27;;;0.20;;
72728;SDS011;60843;52.062;4.508;2024-01-16T02:40:11;8.63;;;0.55;;
72728;SDS011;60843;52.062;4.508;2024-01-16T02:42:37;2.58;;;0.32;;
72728;SDS011;60843;52.062;4.508;2024-01-16T02:45:03;3.03;;;0.45;;
72728;SDS011;60843;52.062;4.508;2024-01-16T02:47:32;1.60;;;0.38;;
72728;SDS011;60843;52.062;4.508;2024-01-16T02:50:00;1.58;;;0.38;;
72728;SDS011;60843;52.062;4.508;2024-01-16T02:52:26;1.00;;;0.30;;
72728;SDS011;60843;52.062;4.508;2024-01-16T02:54:52;2.22;;;0.40;;
72728;SDS011;60843;52.062;4.508;2024-01-16T02:57:17;1.40;;;0.25;;
72728;SDS011;60843;52.062;4.508;2024-01-16T02:59:46;3.40;;;0.35;;
72728;SDS011;60843;52.062;4.508;2024-01-16T03:02:12;3.40;;;0.30;;
72728;SDS011;60843;52.062;4.508;2024-01-16T03:04:38;1.92;;;0.28;;
72728;SDS011;60843;52.062;4.508;2024-01-16T03:07:05;4.72;;;0.52;;
72728;SDS011;60843;52.062;4.508;2024-01-16T03:09:30;2.75;;;0.47;;
72728;SDS011;60843;52.062;4.508;2024-01-16T03:11:56;0.63;;;0.22;;
72728;SDS011;60843;52.062;4.508;2024-01-16T03:14:23;0.95;;;0.32;;
72728;SDS011;60843;52.062;4.508;2024-01-16T03:16:48;3.65;;;0.75;;
72728;SDS011;60843;52.062;4.508;2024-01-16T03:19:14;3.63;;;0.20;;
72728;SDS011;60843;52.062;4.508;2024-01-16T03:21:39;0.75;;;0.45;;
72728;SDS011;60843;52.062;4.508;2024-01-16T03:24:11;0.90;;;0.40;;
72728;SDS011;60843;52.062;4.508;2024-01-16T03:26:37;2.65;;;0.40;;
72728;SDS011;60843;52.062;4.508;2024-01-16T03:29:03;0.63;;;0.22;;
72728;SDS011;60843;52.062;4.508;2024-01-16T03:31:29;4.47;;;0.30;;
72728;SDS011;60843;52.062;4.508;2024-01-16T03:33:55;1.38;;;0.40;;
72728;SDS011;60843;52.062;4.508;2024-01-16T03:36:21;1.05;;;0.63;;
72728;SDS011;60843;52.062;4.508;2024-01-16T03:38:50;0.10;;;0.10;;
72728;SDS011;60843;52.062;4.508;2024-01-16T03:41:15;0.00;;;0.00;;
72728;SDS011;60843;52.062;4.508;2024-01-16T03:43:41;0.63;;;0.40;;
72728;SDS011;60843;52.062;4.508;2024-01-16T03:46:06;0.10;;;0.10;;
72728;SDS011;60843;52.062;4.508;2024-01-16T03:48:32;2.05;;;0.40;;
72728;SDS011;60843;52.062;4.508;2024-01-16T03:50:58;1.55;;;0.20;;
72728;SDS011;60843;52.062;4.508;2024-01-16T03:53:24;1.10;;;0.20;;
72728;SDS011;60843;52.062;4.508;2024-01-16T03:55:49;1.80;;;0.30;;
72728;SDS011;60843;52.062;4.508;2024-01-16T03:58:16;0.47;;;0.28;;
72728;SDS011;60843;52.062;4.508;2024-01-16T04:00:42;1.13;;;0.30;;
72728;SDS011;60843;52.062;4.508;2024-01-16T04:03:08;1.27;;;0.50;;
72728;SDS011;60843;52.062;4.508;2024-01-16T04:05:34;0.60;;;0.28;;
72728;SDS011;60843;52.062;4.508;2024-01-16T04:08:00;2.63;;;0.43;;
72728;SDS011;60843;52.062;4.508;2024-01-16T04:10:25;5.07;;;0.60;;
72728;SDS011;60843;52.062;4.508;2024-01-16T04:12:51;2.47;;;0.57;;
72728;SDS011;60843;52.062;4.508;2024-01-16T04:15:17;0.63;;;0.50;;
72728;SDS011;60843;52.062;4.508;2024-01-16T04:17:43;1.15;;;0.40;;
72728;SDS011;60843;52.062;4.508;2024-01-16T04:20:09;1.20;;;0.63;;
72728;SDS011;60843;52.062;4.508;2024-01-16T04:22:35;1.88;;;0.60;;
72728;SDS011;60843;52.062;4.508;2024-01-16T04:25:01;0.95;;;0.38;;
72728;SDS011;60843;52.062;4.508;2024-01-16T04:27:29;0.43;;;0.20;;
72728;SDS011;60843;52.062;4.508;2024-01-16T04:29:56;3.10;;;0.43;;
72728;SDS011;60843;52.062;4.508;2024-01-16T04:32:22;1.38;;;0.20;;
72728;SDS011;60843;52.062;4.508;2024-01-16T04:34:48;3.33;;;0.73;;
72728;SDS011;60843;52.062;4.508;2024-01-16T04:37:13;2.83;;;0.30;;
72728;SDS011;60843;52.062;4.508;2024-01-16T04:39:39;0.93;;;0.32;;
72728;SDS011;60843;52.062;4.508;2024-01-16T04:42:04;0.55;;;0.30;;
72728;SDS011;60843;52.062;4.508;2024-01-16T04:46:58;0.80;;;0.40;;
72728;SDS011;60843;52.062;4.508;2024-01-16T04:49:25;1.65;;;0.40;;
72728;SDS011;60843;52.062;4.508;2024-01-16T04:51:54;10.60;;;1.40;;
72728;SDS011;60843;52.062;4.508;2024-01-16T04:54:19;1.98;;;0.75;;
72728;SDS011;60843;52.062;4.508;2024-01-16T04:56:45;6.65;;;0.57;;
72728;SDS011;60843;52.062;4.508;2024-01-16T04:59:11;1.38;;;0.38;;
72728;SDS011;60843;52.062;4.508;2024-01-16T05:01:37;10.95;;;1.05;;
72728;SDS011;60843;52.062;4.508;2024-01-16T05:04:02;4.43;;;0.77;;
72728;SDS011;60843;52.062;4.508;2024-01-16T05:06:28;1.70;;;0.50;;
72728;SDS011;60843;52.062;4.508;2024-01-16T05:08:55;3.50;;;0.40;;
72728;SDS011;60843;52.062;4.508;2024-01-16T05:11:20;2.53;;;0.80;;
72728;SDS011;60843;52.062;4.508;2024-01-16T05:13:52;0.80;;;0.55;;
72728;SDS011;60843;52.062;4.508;2024-01-16T05:16:24;5.47;;;0.77;;
72728;SDS011;60843;52.062;4.508;2024-01-16T05:18:49;5.70;;;0.90;;
72728;SDS011;60843;52.062;4.508;2024-01-16T05:21:15;2.75;;;0.80;;
72728;SDS011;60843;52.062;4.508;2024-01-16T05:23:44;8.52;;;0.93;;
72728;SDS011;60843;52.062;4.508;2024-01-16T05:26:10;0.93;;;0.60;;
72728;SDS011;60843;52.062;4.508;2024-01-16T05:28:35;2.08;;;0.85;;
72728;SDS011;60843;52.062;4.508;2024-01-16T05:31:01;2.58;;;0.70;;
72728;SDS011;60843;52.062;4.508;2024-01-16T05:33:27;3.25;;;1.00;;
72728;SDS011;60843;52.062;4.508;2024-01-16T05:35:53;1.88;;;0.60;;
72728;SDS011;60843;52.062;4.508;2024-01-16T05:38:19;1.63;;;0.75;;
72728;SDS011;60843;52.062;4.508;2024-01-16T05:40:45;5.40;;;1.50;;
72728;SDS011;60843;52.062;4.508;2024-01-16T05:43:10;1.90;;;0.95;;
72728;SDS011;60843;52.062;4.508;2024-01-16T05:45:36;7.00;;;1.30;;
72728;SDS011;60843;52.062;4.508;2024-01-16T05:48:01;8.35;;;1.30;;
72728;SDS011;60843;52.062;4.508;2024-01-16T05:50:30;3.50;;;1.45;;
72728;SDS011;60843;52.062;4.508;2024-01-16T05:52:55;4.15;;;1.10;;
72728;SDS011;60843;52.062;4.508;2024-01-16T05:55:21;5.40;;;1.50;;
72728;SDS011;60843;52.062;4.508;2024-01-16T05:57:47;4.20;;;1.45;;
72728;SDS011;60843;52.062;4.508;2024-01-16T06:00:13;3.80;;;1.30;;
72728;SDS011;60843;52.062;4.508;2024-01-16T06:02:39;6.30;;;1.08;;
72728;SDS011;60843;52.062;4.508;2024-01-16T06:05:06;4.57;;;1.42;;
72728;SDS011;60843;52.062;4.508;2024-01-16T06:07:32;5.18;;;1.25;;
72728;SDS011;60843;52.062;4.508;2024-01-16T06:09:58;3.42;;;1.35;;
72728;SDS011;60843;52.062;4.508;2024-01-16T06:12:24;5.00;;;1.58;;
72728;SDS011;60843;52.062;4.508;2024-01-16T06:14:49;2.92;;;1.05;;
72728;SDS011;60843;52.062;4.508;2024-01-16T06:17:15;2.53;;;1.27;;
72728;SDS011;60843;52.062;4.508;2024-01-16T06:19:41;6.13;;;1.92;;
72728;SDS011;60843;52.062;4.508;2024-01-16T06:22:06;10.75;;;2.10;;
72728;SDS011;60843;52.062;4.508;2024-01-16T06:24:33;3.60;;;1.52;;
72728;SDS011;60843;52.062;4.508;2024-01-16T06:27:06;6.65;;;1.42;;
72728;SDS011;60843;52.062;4.508;2024-01-16T06:29:32;3.30;;;1.38;;
72728;SDS011;60843;52.062;4.508;2024-01-16T06:31:58;6.90;;;1.83;;
72728;SDS011;60843;52.062;4.508;2024-01-16T06:34:27;12.70;;;2.25;;
72728;SDS011;60843;52.062;4.508;2024-01-16T06:36:56;11.30;;;2.08;;
72728;SDS011;60843;52.062;4.508;2024-01-16T06:41:49;4.40;;;1.58;;
72728;SDS011;60843;52.062;4.508;2024-01-16T06:44:15;5.82;;;1.50;;
72728;SDS011;60843;52.062;4.508;2024-01-16T06:46:46;8.73;;;1.55;;
72728;SDS011;60843;52.062;4.508;2024-01-16T06:51:38;7.83;;;1.97;;
72728;SDS011;60843;52.062;4.508;2024-01-16T06:54:04;4.30;;;1.20;;
72728;SDS011;60843;52.062;4.508;2024-01-16T06:56:30;2.78;;;0.77;;
72728;SDS011;60843;52.062;4.508;2024-01-16T06:58:55;7.93;;;1.08;;
72728;SDS011;60843;52.062;4.508;2024-01-16T07:01:21;4.57;;;0.70;;
72728;SDS011;60843;52.062;4.508;2024-01-16T07:03:48;4.00;;;0.70;;
72728;SDS011;60843;52.062;4.508;2024-01-16T07:06:16;6.30;;;0.98;;
72728;SDS011;60843;52.062;4.508;2024-01-16T07:08:42;3.65;;;0.93;;
72728;SDS011;60843;52.062;4.508;2024-01-16T07:11:08;13.05;;;3.03;;
72728;SDS011;60843;52.062;4.508;2024-01-16T07:13:38;5.43;;;2.22;;
72728;SDS011;60843;52.062;4.508;2024-01-16T07:16:04;30.33;;;8.95;;
72728;SDS011;60843;52.062;4.508;2024-01-16T07:18:30;33.67;;;9.00;;
72728;SDS011;60843;52.062;4.508;2024-01-16T07:21:00;29.25;;;5.65;;
72728;SDS011;60843;52.062;4.508;2024-01-16T07:23:29;12.60;;;2.65;;
72728;SDS011;60843;52.062;4.508;2024-01-16T07:25:55;11.48;;;2.10;;
72728;SDS011;60843;52.062;4.508;2024-01-16T07:28:21;5.00;;;1.25;;
72728;SDS011;60843;52.062;4.508;2024-01-16T07:30:48;8.68;;;1.42;;
72728;SDS011;60843;52.062;4.508;2024-01-16T07:33:14;2.25;;;0.93;;
72728;SDS011;60843;52.062;4.508;2024-01-16T07:35:39;0.93;;;0.60;;
72728;SDS011;60843;52.062;4.508;2024-01-16T07:38:06;4.90;;;0.63;;
72728;SDS011;60843;52.062;4.508;2024-01-16T07:40:33;5.07;;;1.13;;
72728;SDS011;60843;52.062;4.508;2024-01-16T07:43:02;2.13;;;0.60;;
72728;SDS011;60843;52.062;4.508;2024-01-16T07:45:28;1.35;;;0.55;;
72728;SDS011;60843;52.062;4.508;2024-01-16T07:47:57;5.50;;;1.00;;
72728;SDS011;60843;52.062;4.508;2024-01-16T07:50:23;2.40;;;0.90;;
72728;SDS011;60843;52.062;4.508;2024-01-16T07:52:49;19.30;;;5.38;;
72728;SDS011;60843;52.062;4.508;2024-01-16T07:55:18;8.43;;;3.33;;
72728;SDS011;60843;52.062;4.508;2024-01-16T08:00:10;2.63;;;0.82;;
72728;SDS011;60843;52.062;4.508;2024-01-16T08:02:37;6.45;;;1.50;;
72728;SDS011;60843;52.062;4.508;2024-01-16T08:05:05;1.75;;;0.85;;
72728;SDS011;60843;52.062;4.508;2024-01-16T08:07:31;2.97;;;0.75;;
72728;SDS011;60843;52.062;4.508;2024-01-16T08:09:57;5.10;;;1.00;;
72728;SDS011;60843;52.062;4.508;2024-01-16T08:12:23;4.20;;;1.67;;
72728;SDS011;60843;52.062;4.508;2024-01-16T08:14:48;12.40;;;2.88;;
72728;SDS011;60843;52.062;4.508;2024-01-16T08:17:14;12.68;;;3.05;;
72728;SDS011;60843;52.062;4.508;2024-01-16T08:19:40;15.75;;;3.90;;
72728;SDS011;60843;52.062;4.508;2024-01-16T08:22:06;12.02;;;3.65;;
72728;SDS011;60843;52.062;4.508;2024-01-16T08:24:34;27.25;;;6.50;;
72728;SDS011;60843;52.062;4.508;2024-01-16T08:27:01;3.80;;;1.13;;
72728;SDS011;60843;52.062;4.508;2024-01-16T08:29:28;2.15;;;0.63;;
72728;SDS011;60843;52.062;4.508;2024-01-16T08:31:57;4.72;;;0.70;;
72728;SDS011;60843;52.062;4.508;2024-01-16T08:34:23;2.38;;;1.00;;
72728;SDS011;60843;52.062;4.508;2024-01-16T08:36:48;6.38;;;0.70;;
72728;SDS011;60843;52.062;4.508;2024-01-16T08:39:14;1.20;;;0.50;;
72728;SDS011;60843;52.062;4.508;2024-01-16T08:41:41;2.65;;;0.45;;
72728;SDS011;60843;52.062;4.508;2024-01-16T08:44:07;2.03;;;0.50;;
72728;SDS011;60843;52.062;4.508;2024-01-16T08:46:33;3.75;;;0.45;;
72728;SDS011;60843;52.062;4.508;2024-01-16T08:48:58;2.03;;;0.68;;
72728;SDS011;60843;52.062;4.508;2024-01-16T08:51:24;12.07;;;1.77;;
72728;SDS011;60843;52.062;4.508;2024-01-16T08:53:51;2.38;;;0.52;;
72728;SDS011;60843;52.062;4.508;2024-01-16T08:56:16;1.15;;;0.60;;
72728;SDS011;60843;52.062;4.508;2024-01-16T08:58:45;1.88;;;0.60;;
72728;SDS011;60843;52.062;4.508;2024-01-16T09:01:11;3.35;;;0.32;;
72728;SDS011;60843;52.062;4.508;2024-01-16T09:03:38;1.02;;;0.47;;
72728;SDS011;60843;52.062;4.508;2024-01-16T09:06:03;2.67;;;0.40;;
72728;SDS011;60843;52.062;4.508;2024-01-16T09:08:31;2.55;;;0.43;;
72728;SDS011;60843;52.062;4.508;2024-01-16T09:10:57;8.38;;;0.65;;
72728;SDS011;60843;52.062;4.508;2024-01-16T09:13:22;3.30;;;0.82;;
72728;SDS011;60843;52.062;4.508;2024-01-16T09:15:48;2.40;;;0.50;;
72728;SDS011;60843;52.062;4.508;2024-01-16T09:18:15;1.23;;;0.40;;
72728;SDS011;60843;52.062;4.508;2024-01-16T09:20:46;2.40;;;0.32;;
72728;SDS011;60843;52.062;4.508;2024-01-16T09:23:12;0.80;;;0.30;;
72728;SDS011;60843;52.062;4.508;2024-01-16T09:25:38;2.08;;;0.60;;
72728;SDS011;60843;52.062;4.508;2024-01-16T09:28:03;1.90;;;0.40;;
72728;SDS011;60843;52.062;4.508;2024-01-16T09:30:28;1.42;;;0.35;;
72728;SDS011;60843;52.062;4.508;2024-01-16T09:32:54;0.35;;;0.35;;
72728;SDS011;60843;52.062;4.508;2024-01-16T09:35:20;3.03;;;0.38;;
72728;SDS011;60843;52.062;4.508;2024-01-16T09:37:47;2.17;;;0.50;;
72728;SDS011;60843;52.062;4.508;2024-01-16T09:40:12;1.17;;;0.20;;
72728;SDS011;60843;52.062;4.508;2024-01-16T09:42:38;0.68;;;0.20;;
72728;SDS011;60843;52.062;4.508;2024-01-16T09:45:05;1.90;;;0.63;;
72728;SDS011;60843;52.062;4.508;2024-01-16T09:47:32;3.42;;;0.68;;
72728;SDS011;60843;52.062;4.508;2024-01-16T09:50:01;1.23;;;0.55;;
72728;SDS011;60843;52.062;4.508;2024-01-16T09:54:53;0.30;;;0.20;;
72728;SDS011;60843;52.062;4.508;2024-01-16T09:57:19;2.42;;;0.70;;
72728;SDS011;60843;52.062;4.508;2024-01-16T09:59:48;1.65;;;0.40;;
72728;SDS011;60843;52.062;4.508;2024-01-16T10:02:14;0.40;;;0.20;;
72728;SDS011;60843;52.062;4.508;2024-01-16T10:04:41;2.17;;;0.32;;
72728;SDS011;60843;52.062;4.508;2024-01-16T10:07:07;0.10;;;0.10;;
72728;SDS011;60843;52.062;4.508;2024-01-16T10:09:33;3.15;;;0.65;;
72728;SDS011;60843;52.062;4.508;2024-01-16T10:12:01;2.38;;;0.47;;
72728;SDS011;60843;52.062;4.508;2024-01-16T10:14:28;2.58;;;0.50;;
72728;SDS011;60843;52.062;4.508;2024-01-16T10:16:54;0.90;;;0.32;;
72728;SDS011;60843;52.062;4.508;2024-01-16T10:19:52;6.80;;;0.50;;
72728;SDS011;60843;52.062;4.508;2024-01-16T10:22:22;0.32;;;0.30;;
72728;SDS011;60843;52.062;4.508;2024-01-16T10:24:50;0.13;;;0.08;;
72728;SDS011;60843;52.062;4.508;2024-01-16T10:27:29;1.23;;;0.30;;
72728;SDS011;60843;52.062;4.508;2024-01-16T10:29:57;0.15;;;0.10;;
72728;SDS011;60843;52.062;4.508;2024-01-16T10:32:27;0.80;;;0.35;;
72728;SDS011;60843;52.062;4.508;2024-01-16T10:37:44;0.47;;;0.30;;
72728;SDS011;60843;52.062;4.508;2024-01-16T10:40:23;0.40;;;0.30;;
72728;SDS011;60843;52.062;4.508;2024-01-16T10:43:02;5.72;;;0.60;;
72728;SDS011;60843;52.062;4.508;2024-01-16T10:45:31;0.70;;;0.47;;
72728;SDS011;60843;52.062;4.508;2024-01-16T10:48:05;2.47;;;0.63;;
72728;SDS011;60843;52.062;4.508;2024-01-16T10:50:37;0.10;;;0.10;;
72728;SDS011;60843;52.062;4.508;2024-01-16T10:53:04;0.00;;;0.00;;
72728;SDS011;60843;52.062;4.508;2024-01-16T10:55:34;2.42;;;0.40;;
72728;SDS011;60843;52.062;4.508;2024-01-16T10:58:08;0.77;;;0.40;;
72728;SDS011;60843;52.062;4.508;2024-01-16T11:00:34;2.33;;;0.32;;
72728;SDS011;60843;52.062;4.508;2024-01-16T11:03:07;0.00;;;0.00;;
72728;SDS011;60843;52.062;4.508;2024-01-16T11:05:35;0.60;;;0.20;;
72728;SDS011;60843;52.062;4.508;2024-01-16T11:08:01;0.30;;;0.20;;
72728;SDS011;60843;52.062;4.508;2024-01-16T11:10:27;1.38;;;0.30;;
72728;SDS011;60843;52.062;4.508;2024-01-16T11:12:52;2.85;;;0.40;;
72728;SDS011;60843;52.062;4.508;2024-01-16T11:15:18;0.38;;;0.05;;
72728;SDS011;60843;52.062;4.508;2024-01-16T11:17:44;3.42;;;0.43;;
72728;SDS011;60843;52.062;4.508;2024-01-16T11:20:11;3.55;;;0.30;;
72728;SDS011;60843;52.062;4.508;2024-01-16T11:22:39;7.88;;;0.65;;
72728;SDS011;60843;52.062;4.508;2024-01-16T11:25:10;5.15;;;0.40;;
72728;SDS011;60843;52.062;4.508;2024-01-16T11:27:39;4.05;;;0.50;;
72728;SDS011;60843;52.062;4.508;2024-01-16T11:30:06;3.03;;;0.47;;
72728;SDS011;60843;52.062;4.508;2024-01-16T11:32:34;1.27;;;0.20;;
72728;SDS011;60843;52.062;4.508;2024-01-16T11:35:05;0.82;;;0.25;;
72728;SDS011;60843;52.062;4.508;2024-01-16T11:37:32;0.13;;;0.10;;
72728;SDS011;60843;52.062;4.508;2024-01-16T11:42:48;0.60;;;0.20;;
72728;SDS011;60843;52.062;4.508;2024-01-16T11:48:10;0.10;;;0.10;;
72728;SDS011;60843;52.062;4.508;2024-01-16T11:50:39;0.10;;;0.10;;
72728;SDS011;60843;52.062;4.508;2024-01-16T11:53:06;1.75;;;0.50;;
72728;SDS011;60843;52.062;4.508;2024-01-16T12:01:45;0.60;;;0.30;;
72728;SDS011;60843;52.062;4.508;2024-01-16T12:04:10;0.35;;;0.20;;
72728;SDS011;60843;52.062;4.508;2024-01-16T12:06:36;1.50;;;0.73;;
72728;SDS011;60843;52.062;4.508;2024-01-16T12:09:12;0.70;;;0.10;;
72728;SDS011;60843;52.062;4.508;2024-01-16T12:11:42;3.35;;;0.63;;
72728;SDS011;60843;52.062;4.508;2024-01-16T12:14:11;0.20;;;0.15;;
72728;SDS011;60843;52.062;4.508;2024-01-16T12:16:37;2.05;;;0.20;;
72728;SDS011;60843;52.062;4.508;2024-01-16T12:19:06;3.55;;;1.02;;
72728;SDS011;60843;52.062;4.508;2024-01-16T12:21:43;0.85;;;0.20;;
72728;SDS011;60843;52.062;4.508;2024-01-16T12:24:15;0.73;;;0.20;;
72728;SDS011;60843;52.062;4.508;2024-01-16T12:26:41;2.22;;;0.45;;
72728;SDS011;60843;52.062;4.508;2024-01-16T12:29:07;3.50;;;0.52;;
72728;SDS011;60843;52.062;4.508;2024-01-16T12:31:36;1.65;;;0.28;;
72728;SDS011;60843;52.062;4.508;2024-01-16T12:34:05;2.25;;;0.57;;
72728;SDS011;60843;52.062;4.508;2024-01-16T12:36:34;0.10;;;0.03;;
72728;SDS011;60843;52.062;4.508;2024-01-16T12:39:01;3.45;;;0.50;;
72728;SDS011;60843;52.062;4.508;2024-01-16T12:41:37;0.30;;;0.25;;
72728;SDS011;60843;52.062;4.508;2024-01-16T12:44:09;1.02;;;0.25;;
72728;SDS011;60843;52.062;4.508;2024-01-16T12:46:35;0.77;;;0.40;;
72728;SDS011;60843;52.062;4.508;2024-01-16T12:49:01;0.47;;;0.10;;
72728;SDS011;60843;52.062;4.508;2024-01-16T12:51:28;0.88;;;0.30;;
72728;SDS011;60843;52.062;4.508;2024-01-16T12:53:54;1.90;;;0.32;;
72728;SDS011;60843;52.062;4.508;2024-01-16T12:56:19;0.20;;;0.10;;
72728;SDS011;60843;52.062;4.508;2024-01-16T12:58:46;0.03;;;0.03;;
72728;SDS011;60843;52.062;4.508;2024-01-16T13:01:23;0.35;;;0.30;;
72728;SDS011;60843;52.062;4.508;2024-01-16T13:03:50;0.10;;;0.10;;
72728;SDS011;60843;52.062;4.508;2024-01-16T13:06:17;0.17;;;0.17;;
72728;SDS011;60843;52.062;4.508;2024-01-16T13:08:46;0.05;;;0.05;;
72728;SDS011;60843;52.062;4.508;2024-01-16T13:11:12;0.20;;;0.20;;
72728;SDS011;60843;52.062;4.508;2024-01-16T13:13:40;0.20;;;0.00;;
72728;SDS011;60843;52.062;4.508;2024-01-16T13:16:09;2.47;;;0.32;;
72728;SDS011;60843;52.062;4.508;2024-01-16T13:18:36;0.28;;;0.15;;
72728;SDS011;60843;52.062;4.508;2024-01-16T13:21:02;2.38;;;0.30;;
72728;SDS011;60843;52.062;4.508;2024-01-16T13:23:29;2.10;;;0.20;;
72728;SDS011;60843;52.062;4.508;2024-01-16T13:25:55;1.10;;;0.40;;
72728;SDS011;60843;52.062;4.508;2024-01-16T13:28:22;1.33;;;0.28;;
72728;SDS011;60843;52.062;4.508;2024-01-16T13:30:49;0.38;;;0.13;;
72728;SDS011;60843;52.062;4.508;2024-01-16T13:33:15;0.45;;;0.10;;
72728;SDS011;60843;52.062;4.508;2024-01-16T13:35:44;0.32;;;0.20;;
72728;SDS011;60843;52.062;4.508;2024-01-16T13:38:16;0.68;;;0.20;;
72728;SDS011;60843;52.062;4.508;2024-01-16T13:40:44;2.60;;;0.22;;
72728;SDS011;60843;52.062;4.508;2024-01-16T13:43:10;8.68;;;0.17;;
72728;SDS011;60843;52.062;4.508;2024-01-16T13:45:36;2.05;;;0.20;;
72728;SDS011;60843;52.062;4.508;2024-01-16T13:48:03;6.70;;;0.52;;
72728;SDS011;60843;52.062;4.508;2024-01-16T13:50:30;2.30;;;0.32;;
72728;SDS011;60843;52.062;4.508;2024-01-16T13:52:57;2.03;;;0.40;;
72728;SDS011;60843;52.062;4.508;2024-01-16T13:55:23;2.85;;;0.43;;
72728;SDS011;60843;52.062;4.508;2024-01-16T13:57:48;3.50;;;0.43;;
72728;SDS011;60843;52.062;4.508;2024-01-16T14:00:14;4.05;;;0.40;;
72728;SDS011;60843;52.062;4.508;2024-01-16T14:02:47;4.00;;;0.40;;
72728;SDS011;60843;52.062;4.508;2024-01-16T14:05:17;1.42;;;0.30;;
72728;SDS011;60843;52.062;4.508;2024-01-16T14:07:48;1.23;;;0.32;;
72728;SDS011;60843;52.062;4.508;2024-01-16T14:10:21;1.70;;;0.38;;
72728;SDS011;60843;52.062;4.508;2024-01-16T14:12:47;2.97;;;0.50;;
72728;SDS011;60843;52.062;4.508;2024-01-16T14:15:17;0.35;;;0.20;;
72728;SDS011;60843;52.062;4.508;2024-01-16T14:17:46;3.25;;;0.32;;
72728;SDS011;60843;52.062;4.508;2024-01-16T14:20:13;2.25;;;0.17;;
72728;SDS011;60843;52.062;4.508;2024-01-16T14:22:40;0.63;;;0.38;;
72728;SDS011;60843;52.062;4.508;2024-01-16T14:25:15;1.73;;;0.65;;
72728;SDS011;60843;52.062;4.508;2024-01-16T14:27:44;1.35;;;0.60;;
72728;SDS011;60843;52.062;4.508;2024-01-16T14:30:12;2.10;;;0.55;;
72728;SDS011;60843;52.062;4.508;2024-01-16T14:32:42;3.28;;;0.35;;
72728;SDS011;60843;52.062;4.508;2024-01-16T14:35:12;2.65;;;0.35;;
72728;SDS011;60843;52.062;4.508;2024-01-16T14:37:39;2.33;;;0.60;;
72728;SDS011;60843;52.062;4.508;2024-01-16T14:40:08;1.45;;;0.40;;
72728;SDS011;60843;52.062;4.508;2024-01-16T14:42:50;0.80;;;0.40;;
72728;SDS011;60843;52.062;4.508;2024-01-16T14:45:21;0.80;;;0.40;;
72728;SDS011;60843;52.062;4.508;2024-01-16T14:47:48;2.10;;;0.57;;
72728;SDS011;60843;52.062;4.508;2024-01-16T14:50:15;2.30;;;0.30;;
72728;SDS011;60843;52.062;4.508;2024-01-16T14:52:44;3.53;;;0.35;;
72728;SDS011;60843;52.062;4.508;2024-01-16T14:55:10;0.40;;;0.25;;
72728;SDS011;60843;52.062;4.508;2024-01-16T14:57:39;0.40;;;0.20;;
72728;SDS011;60843;52.062;4.508;2024-01-16T15:00:09;1.10;;;0.40;;
72728;SDS011;60843;52.062;4.508;2024-01-16T15:02:44;0.45;;;0.32;;
72728;SDS011;60843;52.062;4.508;2024-01-16T15:05:11;3.83;;;0.30;;
72728;SDS011;60843;52.062;4.508;2024-01-16T15:07:38;7.57;;;0.95;;
72728;SDS011;60843;52.062;4.508;2024-01-16T15:10:05;0.45;;;0.20;;
72728;SDS011;60843;52.062;4.508;2024-01-16T15:12:33;1.52;;;0.52;;
72728;SDS011;60843;52.062;4.508;2024-01-16T15:14:59;4.45;;;0.68;;